Time;durP1;ratioP1;P1;durP2;ratioP2;P2;SDS_P1;SDS_P2;PMS_P1;PMS_P2;Temp;Humidity;BMP_temperature;BMP_pressure;BME280_temperature;BME280_humidity;BME280_pressure;Samples;Min_cycle;Max_cycle;Signal;HPM_P1;HPM_P2
2022/05/08 00:00:32;;;;;;;13.63;4.55;;;8.20;99.90;;;;;;5075602;28;20085;-76
2022/05/08 00:03:00;;;;;;;11.27;3.13;;;8.20;99.90;;;;;;5049803;28;20036;-76
2022/05/08 00:05:27;;;;;;;10.90;3.03;;;8.00;99.90;;;;;;5062701;28;20040;-75
2022/05/08 00:07:52;;;;;;;9.82;3.92;;;8.00;99.90;;;;;;5080886;28;20429;-76
2022/05/08 00:10:19;;;;;;;7.57;3.03;;;7.90;99.90;;;;;;5075470;28;20055;-75
2022/05/08 00:12:45;;;;;;;9.32;3.20;;;7.70;99.90;;;;;;5092110;28;20043;-76
2022/05/08 00:15:11;;;;;;;9.43;2.80;;;7.60;99.90;;;;;;5069886;28;20041;-75
2022/05/08 00:17:37;;;;;;;12.05;3.13;;;7.60;99.90;;;;;;5045532;28;20040;-75
2022/05/08 00:20:05;;;;;;;14.02;3.85;;;7.50;99.90;;;;;;5042714;28;20044;-76
2022/05/08 00:22:31;;;;;;;8.68;2.65;;;7.40;99.90;;;;;;5052226;28;20037;-75
2022/05/08 00:24:56;;;;;;;10.15;2.95;;;7.30;99.90;;;;;;5053265;28;20043;-75
2022/05/08 00:27:22;;;;;;;9.43;3.50;;;7.30;99.90;;;;;;5042977;28;20522;-76
2022/05/08 00:29:48;;;;;;;13.48;3.65;;;7.20;99.90;;;;;;5047296;28;20443;-76
2022/05/08 00:32:14;;;;;;;9.88;3.33;;;7.10;99.90;;;;;;5082329;23;20173;-76
2022/05/08 00:34:40;;;;;;;12.52;2.90;;;7.10;99.90;;;;;;5096027;28;20536;-76
2022/05/08 00:37:05;;;;;;;13.95;3.28;;;7.00;99.90;;;;;;5098694;28;20398;-76
2022/05/08 00:39:32;;;;;;;9.80;3.13;;;6.90;99.90;;;;;;5105322;28;20034;-76
2022/05/08 00:41:58;;;;;;;14.05;3.97;;;6.90;99.90;;;;;;5068588;28;20040;-76
2022/05/08 00:44:24;;;;;;;15.32;2.80;;;6.80;99.90;;;;;;5070695;28;20097;-76
2022/05/08 00:46:49;;;;;;;9.77;3.10;;;6.70;99.90;;;;;;5079199;28;20581;-76
2022/05/08 00:49:15;;;;;;;13.75;3.30;;;6.70;99.90;;;;;;5083940;28;20055;-76
2022/05/08 00:51:43;;;;;;;9.48;3.28;;;6.60;99.90;;;;;;5056515;28;20047;-76
2022/05/08 00:54:09;;;;;;;11.13;2.70;;;6.50;99.90;;;;;;5062759;28;20041;-76
2022/05/08 00:56:35;;;;;;;9.23;2.85;;;6.50;99.90;;;;;;5077433;28;20097;-76
2022/05/08 00:59:01;;;;;;;9.38;3.22;;;6.40;99.90;;;;;;5068452;28;20391;-76
2022/05/08 01:01:28;;;;;;;8.73;2.95;;;6.30;99.90;;;;;;5066114;28;20065;-76
2022/05/08 01:03:53;;;;;;;10.55;2.90;;;6.30;99.90;;;;;;5080211;28;20036;-76
2022/05/08 01:06:19;;;;;;;9.77;3.10;;;6.20;99.90;;;;;;5059727;28;20384;-76
2022/05/08 01:08:46;;;;;;;9.13;3.10;;;6.10;99.90;;;;;;5063133;28;20036;-77
2022/05/08 01:11:12;;;;;;;9.50;2.67;;;6.00;99.90;;;;;;5083056;28;20124;-76
2022/05/08 01:13:40;;;;;;;11.38;3.00;;;6.00;99.90;;;;;;5063814;28;20091;-76
2022/05/08 01:16:15;;;;;;;9.50;3.25;;;5.90;99.90;;;;;;5081851;28;20039;-76
2022/05/08 01:18:45;;;;;;;7.75;2.58;;;5.90;99.90;;;;;;5056816;28;20140;-77
2022/05/08 01:21:15;;;;;;;8.20;2.90;;;5.80;99.90;;;;;;5068348;28;20036;-77
2022/05/08 01:23:40;;;;;;;9.15;3.20;;;5.70;99.90;;;;;;5071442;28;20041;-76
2022/05/08 01:26:06;;;;;;;7.60;3.00;;;5.70;99.90;;;;;;5056614;28;20115;-76
2022/05/08 01:28:32;;;;;;;9.88;3.10;;;5.60;99.90;;;;;;5074566;28;20119;-76
2022/05/08 01:30:58;;;;;;;10.82;3.53;;;5.60;99.90;;;;;;5052051;28;20443;-77
2022/05/08 01:33:25;;;;;;;9.68;3.10;;;5.50;99.90;;;;;;5070657;28;20203;-76
2022/05/08 01:35:51;;;;;;;10.10;2.97;;;5.50;99.90;;;;;;5069980;28;20047;-76
2022/05/08 01:38:18;;;;;;;9.05;3.53;;;5.40;99.90;;;;;;5082107;28;20484;-76
2022/05/08 01:40:44;;;;;;;11.15;3.55;;;5.40;99.90;;;;;;5084054;28;20033;-76
2022/05/08 01:43:11;;;;;;;10.80;3.28;;;5.30;99.90;;;;;;5083994;28;20036;-76
2022/05/08 01:45:37;;;;;;;9.40;2.95;;;5.20;99.90;;;;;;5066075;28;20036;-76
2022/05/08 01:50:52;;;;;;;7.78;3.17;;;5.10;99.90;;;;;;5081985;28;20109;-76
2022/05/08 01:53:21;;;;;;;8.65;3.20;;;5.10;99.90;;;;;;5073902;28;20044;-76
2022/05/08 01:55:54;;;;;;;11.25;3.70;;;5.00;99.90;;;;;;5045321;28;20052;-75
2022/05/08 01:58:20;;;;;;;;;;;5.00;99.90;;;;;;5079060;28;20036;-76
2022/05/08 02:00:47;;;;;;;8.80;3.35;;;4.90;99.90;;;;;;5070154;28;19951;-76
2022/05/08 02:03:13;;;;;;;11.45;3.70;;;4.90;99.90;;;;;;5073905;28;20472;-76
2022/05/08 02:05:40;;;;;;;7.30;2.92;;;4.90;99.90;;;;;;5073585;28;20085;-76
2022/05/08 02:08:06;;;;;;;9.10;3.15;;;4.80;99.90;;;;;;5053691;28;20047;-76
2022/05/08 02:10:32;;;;;;;11.13;3.60;;;4.80;99.90;;;;;;5069953;28;20039;-76
2022/05/08 02:12:58;;;;;;;13.63;3.60;;;4.70;99.90;;;;;;5088618;28;20126;-76
2022/05/08 02:15:29;;;;;;;11.45;4.20;;;4.70;99.90;;;;;;5080899;28;20040;-76
2022/05/08 02:17:58;;;;;;;8.57;2.90;;;4.60;99.90;;;;;;5079616;28;20036;-76
2022/05/08 02:20:24;;;;;;;7.82;2.42;;;4.60;99.90;;;;;;5056085;28;20504;-76
2022/05/08 02:22:49;;;;;;;13.95;3.45;;;4.50;99.90;;;;;;5068046;28;20119;-76
2022/05/08 02:25:15;;;;;;;12.60;3.33;;;4.50;99.90;;;;;;5070014;28;20124;-76
2022/05/08 02:27:41;;;;;;;8.25;3.03;;;4.40;99.90;;;;;;5072345;28;20087;-76
2022/05/08 02:30:11;;;;;;;10.60;3.47;;;4.40;99.90;;;;;;5081626;28;20036;-76
2022/05/08 02:32:38;;;;;;;8.60;3.08;;;4.40;99.90;;;;;;5090114;28;20032;-76
2022/05/08 02:35:09;;;;;;;10.88;3.17;;;4.40;99.90;;;;;;5050519;28;20505;-76
2022/05/08 02:37:36;;;;;;;9.27;3.47;;;4.30;99.90;;;;;;5071034;28;20466;-76
2022/05/08 02:40:02;;;;;;;11.23;3.25;;;4.30;99.90;;;;;;5064945;28;20075;-77
2022/05/08 02:42:27;;;;;;;11.20;3.17;;;4.30;99.90;;;;;;5070513;28;20040;-76
2022/05/08 02:44:53;;;;;;;8.55;3.08;;;4.20;99.90;;;;;;5083080;28;20059;-76
2022/05/08 02:47:19;;;;;;;9.23;3.05;;;4.20;99.90;;;;;;5088900;28;20135;-76
2022/05/08 02:49:44;;;;;;;9.52;3.50;;;4.10;99.90;;;;;;5073279;28;20044;-76
2022/05/08 02:52:10;;;;;;;7.13;3.13;;;4.10;99.90;;;;;;5071945;28;20036;-76
2022/05/08 02:54:35;;;;;;;9.77;2.83;;;4.10;99.90;;;;;;5088848;28;20044;-76
2022/05/08 02:59:45;;;;;;;10.77;3.28;;;4.10;99.90;;;;;;5074336;28;20048;-75
2022/05/08 03:02:10;;;;;;;6.63;2.92;;;4.00;99.90;;;;;;5037024;28;20049;-76
2022/05/08 03:04:36;;;;;;;6.03;2.65;;;4.00;99.90;;;;;;5068596;28;20036;-76
2022/05/08 03:07:02;;;;;;;6.25;2.67;;;4.00;99.90;;;;;;5070904;28;20044;-76
2022/05/08 03:09:28;;;;;;;5.10;2.35;;;3.90;99.90;;;;;;5079172;28;20510;-76
2022/05/08 03:11:53;;;;;;;6.75;3.00;;;3.90;99.90;;;;;;5067728;28;20402;-76
2022/05/08 03:14:20;;;;;;;10.18;3.70;;;3.90;99.90;;;;;;5051668;28;20045;-76
2022/05/08 03:16:47;;;;;;;8.27;3.22;;;3.80;99.90;;;;;;5059088;28;20040;-76
2022/05/08 03:19:13;;;;;;;6.97;2.75;;;3.80;99.90;;;;;;5081445;28;20487;-76
2022/05/08 03:21:40;;;;;;;7.90;2.72;;;3.80;99.90;;;;;;5061800;28;20509;-76
2022/05/08 03:24:07;;;;;;;11.52;3.60;;;3.70;99.90;;;;;;5055639;28;20036;-76
2022/05/08 03:26:32;;;;;;;6.75;3.00;;;3.70;99.90;;;;;;5068987;28;20071;-77
2022/05/08 03:28:58;;;;;;;7.35;3.03;;;3.70;99.90;;;;;;5081409;28;20478;-76
2022/05/08 03:31:24;;;;;;;5.85;2.80;;;3.70;99.90;;;;;;5087040;28;20569;-76
2022/05/08 03:33:49;;;;;;;4.70;2.40;;;3.60;99.90;;;;;;5059480;28;20127;-76
2022/05/08 03:36:15;;;;;;;5.30;2.70;;;3.60;99.90;;;;;;5076748;28;20072;-76
2022/05/08 03:38:45;;;;;;;7.22;2.85;;;3.60;99.90;;;;;;5072388;28;20041;-77
2022/05/08 03:41:15;;;;;;;9.73;3.30;;;3.50;99.90;;;;;;5052931;28;20065;-76
2022/05/08 03:43:42;;;;;;;8.02;3.42;;;3.50;99.90;;;;;;5055226;28;20044;-76
2022/05/08 03:46:08;;;;;;;9.63;3.42;;;3.50;99.90;;;;;;5067084;28;20078;-76
2022/05/08 03:48:35;;;;;;;7.65;3.08;;;3.50;99.90;;;;;;5063521;28;20060;-76
2022/05/08 03:51:01;;;;;;;6.10;2.95;;;3.40;99.90;;;;;;5053245;28;20037;-76
2022/05/08 03:53:27;;;;;;;6.40;2.47;;;3.40;99.90;;;;;;5034924;28;20505;-76
2022/05/08 03:55:52;;;;;;;7.20;2.97;;;3.40;99.90;;;;;;5052458;28;20067;-76
2022/05/08 03:58:18;;;;;;;6.85;2.35;;;3.40;99.90;;;;;;5062892;28;20411;-76
2022/05/08 04:00:43;;;;;;;3.70;2.20;;;3.40;99.90;;;;;;5068876;28;20123;-77
2022/05/08 04:03:09;;;;;;;8.65;2.70;;;3.40;99.90;;;;;;5080478;28;20035;-76
2022/05/08 04:05:34;;;;;;;4.97;2.53;;;3.40;99.90;;;;;;5057359;28;20051;-76
2022/05/08 04:08:00;;;;;;;4.25;2.47;;;3.30;99.90;;;;;;5081315;28;20055;-76
2022/05/08 04:10:25;;;;;;;9.23;2.88;;;3.40;99.90;;;;;;5086304;28;20043;-76
2022/05/08 04:12:51;;;;;;;4.80;2.88;;;3.40;99.90;;;;;;5084619;28;20127;-76
2022/05/08 04:18:00;;;;;;;6.53;2.97;;;3.40;99.90;;;;;;5084128;28;20093;-76
2022/05/08 04:20:26;;;;;;;5.93;2.63;;;3.40;99.90;;;;;;5085905;28;20506;-76
2022/05/08 04:25:35;;;;;;;7.70;2.40;;;3.50;99.90;;;;;;5055742;28;20055;-77
2022/05/08 04:28:01;;;;;;;4.70;2.20;;;3.50;99.90;;;;;;5076293;28;20413;-76
2022/05/08 04:30:26;;;;;;;6.03;2.80;;;3.50;99.90;;;;;;5086136;28;20456;-76
2022/05/08 04:32:52;;;;;;;8.95;3.70;;;3.50;99.90;;;;;;5086434;28;20037;-76
2022/05/08 04:35:17;;;;;;;5.05;2.63;;;3.60;99.90;;;;;;5081942;28;20047;-76
2022/05/08 04:37:44;;;;;;;6.68;2.50;;;3.60;99.90;;;;;;5057405;28;20033;-76
2022/05/08 04:40:09;;;;;;;7.32;2.42;;;3.70;99.90;;;;;;5083158;28;20123;-76
2022/05/08 04:42:35;;;;;;;5.38;2.60;;;3.70;99.90;;;;;;5091927;28;20075;-76
2022/05/08 04:45:00;;;;;;;8.05;3.03;;;3.80;99.90;;;;;;5091725;28;20050;-76
2022/05/08 04:47:28;;;;;;;7.70;2.83;;;3.90;99.90;;;;;;5065796;28;20049;-76
2022/05/08 04:49:54;;;;;;;10.15;3.90;;;4.00;99.90;;;;;;5079438;28;20169;-76
2022/05/08 04:52:20;;;;;;;9.48;3.58;;;4.00;99.90;;;;;;5057312;28;20480;-76
2022/05/08 04:54:45;;;;;;;9.18;3.45;;;4.10;99.90;;;;;;5067831;28;20036;-76
2022/05/08 04:57:11;;;;;;;10.60;5.00;;;4.20;99.90;;;;;;5071630;28;20129;-76
2022/05/08 04:59:36;;;;;;;10.02;4.55;;;4.40;99.90;;;;;;5079226;28;20037;-76
2022/05/08 05:02:02;;;;;;;9.32;4.10;;;4.70;99.90;;;;;;5059315;28;20048;-76
2022/05/08 05:04:28;;;;;;;11.52;3.58;;;5.20;99.90;;;;;;5075862;28;20044;-77
2022/05/08 05:06:54;;;;;;;9.85;3.85;;;5.70;99.90;;;;;;5055451;28;20052;-76
2022/05/08 05:09:20;;;;;;;11.02;4.18;;;6.20;99.90;;;;;;5072517;28;20131;-76
2022/05/08 05:11:45;;;;;;;9.70;4.20;;;6.80;99.90;;;;;;5061430;28;20045;-77
2022/05/08 05:14:11;;;;;;;8.07;3.90;;;7.20;99.90;;;;;;5046118;28;20109;-77
2022/05/08 05:16:37;;;;;;;9.60;4.05;;;7.60;99.90;;;;;;5058473;28;20067;-77
2022/05/08 05:19:04;;;;;;;12.98;4.07;;;8.10;99.90;;;;;;5062553;28;20526;-77
2022/05/08 05:21:30;;;;;;;9.65;3.58;;;8.40;99.90;;;;;;5090981;28;20056;-77
2022/05/08 05:23:55;;;;;;;11.57;3.75;;;8.80;99.90;;;;;;5061296;28;20160;-77
2022/05/08 05:26:21;;;;;;;8.57;3.92;;;9.00;99.90;;;;;;5061583;28;20075;-77
2022/05/08 05:28:47;;;;;;;8.88;3.83;;;9.30;99.90;;;;;;5069276;28;20048;-77
2022/05/08 05:31:12;;;;;;;8.02;3.00;;;9.10;99.90;;;;;;5071062;28;20039;-77
2022/05/08 05:33:38;;;;;;;6.88;3.08;;;8.80;99.90;;;;;;5082939;28;20040;-77
2022/05/08 05:36:04;;;;;;;8.38;3.10;;;8.50;99.90;;;;;;5079523;28;20122;-77
2022/05/08 05:38:29;;;;;;;14.40;3.75;;;8.30;99.90;;;;;;5077607;28;20044;-77
2022/05/08 05:40:55;;;;;;;9.73;3.40;;;8.10;99.90;;;;;;5053630;28;20040;-77
2022/05/08 05:43:20;;;;;;;5.28;2.85;;;7.90;99.90;;;;;;5058102;28;20052;-77
2022/05/08 05:47:49;;;;;;;6.53;3.40;;;7.80;99.90;;;;;;5075319;28;20033;-77
2022/05/08 05:48:34;;;;;;;7.90;3.00;;;7.60;99.90;;;;;;5075479;28;20055;-77
2022/05/08 05:50:59;;;;;;;8.43;3.50;;;7.60;99.90;;;;;;5063315;28;20040;-77
2022/05/08 05:53:25;;;;;;;11.10;3.70;;;7.50;99.90;;;;;;5076984;28;20044;-77
2022/05/08 05:55:51;;;;;;;7.93;3.50;;;7.50;99.90;;;;;;5071073;28;20049;-76
2022/05/08 05:58:16;;;;;;;6.70;3.20;;;7.50;99.90;;;;;;5057703;28;20502;-77
2022/05/08 06:00:42;;;;;;;7.25;3.20;;;7.50;99.90;;;;;;5064576;28;20040;-77
2022/05/08 06:03:07;;;;;;;10.95;3.58;;;7.50;99.90;;;;;;5068185;28;20036;-77
2022/05/08 06:05:33;;;;;;;8.73;3.28;;;7.50;99.90;;;;;;5063875;28;20469;-75
2022/05/08 06:07:58;;;;;;;6.68;3.30;;;7.50;99.90;;;;;;5061248;28;20418;-77
2022/05/08 06:10:24;;;;;;;7.18;2.85;;;7.70;99.90;;;;;;5054706;28;20071;-78
2022/05/08 06:12:50;;;;;;;7.72;3.22;;;7.80;99.90;;;;;;5052104;28;20124;-79
2022/05/08 06:15:15;;;;;;;9.07;3.05;;;7.90;99.90;;;;;;5064595;28;20045;-75
2022/05/08 06:17:41;;;;;;;9.00;3.10;;;8.00;99.90;;;;;;5062134;28;20116;-77
2022/05/08 06:20:07;;;;;;;10.98;3.40;;;8.10;99.90;;;;;;5068271;28;20434;-76
2022/05/08 06:22:33;;;;;;;10.35;2.75;;;8.30;99.90;;;;;;5087760;28;20059;-76
2022/05/08 06:24:58;;;;;;;7.15;2.78;;;8.60;99.90;;;;;;5083251;28;20036;-75
2022/05/08 06:27:25;;;;;;;9.25;2.92;;;8.70;99.90;;;;;;5097059;28;20410;-76
2022/05/08 06:29:50;;;;;;;7.97;3.22;;;8.80;99.90;;;;;;5082251;28;20041;-76
2022/05/08 06:32:19;;;;;;;6.82;2.88;;;8.90;99.90;;;;;;5072313;22;20498;-77
2022/05/08 06:37:49;;;;;;;6.10;2.67;;;9.00;99.90;;;;;;5017495;28;20495;-77
2022/05/08 06:40:15;;;;;;;8.52;2.45;;;9.10;99.90;;;;;;5017635;28;20040;-77
2022/05/08 06:42:46;;;;;;;6.50;2.55;;;9.20;99.90;;;;;;5009202;28;20041;-77
2022/05/08 06:45:24;;;;;;;7.40;2.65;;;9.20;99.90;;;;;;5010100;28;20510;-77
2022/05/08 06:47:49;;;;;;;5.93;2.20;;;9.30;99.90;;;;;;5014766;28;20136;-77
2022/05/08 06:50:17;;;;;;;7.47;2.00;;;9.40;99.90;;;;;;5017353;28;20487;-77
2022/05/08 06:52:53;;;;;;;4.40;1.90;;;9.50;99.90;;;;;;5010336;28;20041;-77
2022/05/08 06:55:25;;;;;;;3.92;2.00;;;9.50;99.90;;;;;;5008297;28;20080;-77
2022/05/08 06:57:58;;;;;;;6.85;1.77;;;9.60;99.90;;;;;;5003265;28;20037;-77
2022/05/08 07:03:37;;;;;;;6.20;1.48;;;9.80;99.90;;;;;;5021537;28;20041;-77
2022/05/08 07:06:03;;;;;;;4.18;1.40;;;10.00;99.90;;;;;;5015629;28;20041;-76
2022/05/08 07:08:54;;;;;;;2.88;1.45;;;10.10;99.90;;;;;;5003320;28;20116;-76
2022/05/08 07:11:38;;;;;;;4.15;1.20;;;10.30;99.90;;;;;;5023178;28;20050;-76
2022/05/08 07:14:42;;;;;;;3.85;1.30;;;10.40;99.90;;;;;;5002048;28;20070;-76
2022/05/08 07:17:45;;;;;;;2.97;1.38;;;10.50;99.90;;;;;;5011271;28;20053;-76
2022/05/08 07:23:38;;;;;;;3.08;1.35;;;10.80;99.90;;;;;;5075676;22;20410;-76
2022/05/08 07:26:13;;;;;;;4.45;1.27;;;11.00;99.90;;;;;;5030884;28;20060;-76
2022/05/08 07:29:20;;;;;;;5.15;1.50;;;11.10;99.90;;;;;;5020735;28;20385;-76
2022/05/08 07:32:16;;;;;;;4.55;1.17;;;11.20;99.90;;;;;;5019102;28;20061;-76
2022/05/08 07:38:21;;;;;;;4.05;1.63;;;11.10;99.90;;;;;;5050367;28;20131;-75
2022/05/08 07:41:04;;;;;;;4.97;1.95;;;11.00;99.90;;;;;;5036433;28;20045;-75
2022/05/08 07:43:48;;;;;;;4.95;1.48;;;11.10;99.90;;;;;;5025841;28;20052;-75
2022/05/08 07:46:22;;;;;;;4.88;1.40;;;11.30;99.90;;;;;;5038052;28;20462;-75
2022/05/08 07:49:10;;;;;;;4.22;1.42;;;11.30;99.90;;;;;;5044353;28;20564;-75
2022/05/08 07:51:46;;;;;;;3.72;1.63;;;11.40;99.90;;;;;;5019734;28;20071;-76
2022/05/08 07:54:12;;;;;;;4.18;1.48;;;11.50;99.90;;;;;;5029502;28;20054;-75
2022/05/08 07:56:40;;;;;;;4.53;1.40;;;11.60;99.90;;;;;;5036026;28;20490;-76
2022/05/08 07:59:20;;;;;;;3.60;1.38;;;11.70;99.90;;;;;;5038958;28;20055;-76
2022/05/08 08:02:37;;;;;;;3.20;1.23;;;11.90;99.90;;;;;;5039178;28;20083;-76
2022/05/08 08:05:45;;;;;;;;;;;12.30;99.90;;;;;;5054268;28;20460;-76
2022/05/08 08:08:34;;;;;;;2.47;1.08;;;12.60;99.90;;;;;;5037498;28;19916;-77
2022/05/08 08:11:27;;;;;;;2.55;0.82;;;12.80;99.90;;;;;;5054672;28;20118;-75
2022/05/08 08:14:02;;;;;;;3.72;1.35;;;13.20;99.90;;;;;;5018799;28;20134;-76
2022/05/08 08:17:08;;;;;;;2.97;1.20;;;14.00;99.90;;;;;;5027944;28;20048;-76
2022/05/08 08:20:22;;;;;;;4.57;1.42;;;15.00;96.80;;;;;;5054614;28;20043;-76
2022/05/08 08:23:14;;;;;;;3.22;1.10;;;16.10;94.50;;;;;;5033468;28;20542;-75
2022/05/08 08:26:06;;;;;;;5.45;1.38;;;16.80;78.60;;;;;;5037318;28;20482;-76
2022/05/08 08:29:01;;;;;;;5.35;1.42;;;16.80;70.90;;;;;;5029640;28;20131;-76
2022/05/08 08:31:56;;;;;;;5.13;1.60;;;17.00;82.70;;;;;;5015792;22;20519;-75
2022/05/08 08:34:28;;;;;;;6.25;1.25;;;17.50;92.00;;;;;;5001714;28;20407;-76
2022/05/08 08:36:53;;;;;;;3.38;1.20;;;18.40;92.20;;;;;;5015335;28;20136;-76
2022/05/08 08:39:24;;;;;;;3.00;1.10;;;19.30;92.50;;;;;;4998132;28;20121;-76
2022/05/08 08:42:28;;;;;;;3.25;1.10;;;20.00;90.50;;;;;;4999093;28;20049;-76
2022/05/08 08:48:13;;;;;;;3.03;1.02;;;19.80;68.30;;;;;;5012683;28;20064;-76
2022/05/08 08:50:45;;;;;;;4.13;1.30;;;20.40;64.00;;;;;;4994015;28;20071;-76
2022/05/08 08:53:11;;;;;;;4.85;1.42;;;20.30;53.20;;;;;;4998936;28;20045;-76
2022/05/08 08:55:37;;;;;;;4.60;1.23;;;19.70;54.40;;;;;;4997104;28;20038;-75
2022/05/08 08:58:03;;;;;;;5.30;1.27;;;19.30;56.40;;;;;;5025449;28;20069;-76
2022/05/08 09:00:31;;;;;;;2.08;1.00;;;19.20;59.90;;;;;;5018627;28;20045;-76
2022/05/08 09:02:58;;;;;;;5.47;1.50;;;19.20;62.80;;;;;;5022961;28;20064;-76
2022/05/08 09:05:36;;;;;;;3.03;1.17;;;19.40;65.70;;;;;;5013682;28;20040;-77
2022/05/08 09:08:02;;;;;;;4.95;0.98;;;20.00;60.00;;;;;;5001098;28;20486;-76
2022/05/08 09:10:35;;;;;;;3.22;1.13;;;20.20;55.30;;;;;;5001619;28;20070;-76
2022/05/08 09:13:05;;;;;;;4.95;1.30;;;20.10;50.30;;;;;;5005102;28;20041;-76
2022/05/08 09:15:36;;;;;;;2.70;1.00;;;19.70;51.00;;;;;;4999291;28;20042;-76
2022/05/08 09:18:17;;;;;;;2.35;1.17;;;19.30;55.00;;;;;;5008843;28;20419;-75
2022/05/08 09:20:47;;;;;;;3.47;1.20;;;19.40;51.70;;;;;;4995016;28;20124;-76
2022/05/08 09:23:24;;;;;;;3.85;1.23;;;19.40;50.60;;;;;;4978956;28;20385;-76
2022/05/08 09:26:01;;;;;;;3.20;1.20;;;19.30;53.10;;;;;;4979887;28;20038;-76
2022/05/08 09:28:35;;;;;;;3.15;1.00;;;19.40;52.00;;;;;;4997664;28;20099;-76
2022/05/08 09:31:12;;;;;;;6.40;1.40;;;19.50;50.60;;;;;;4997720;28;20042;-75
2022/05/08 09:33:47;;;;;;;3.13;1.08;;;19.30;52.80;;;;;;5003742;28;20050;-75
2022/05/08 09:36:20;;;;;;;3.10;1.35;;;19.40;50.10;;;;;;5015877;28;20029;-75
2022/05/08 09:38:45;;;;;;;1.80;0.90;;;19.10;50.70;;;;;;5013579;28;20040;-76
2022/05/08 09:41:29;;;;;;;3.40;1.23;;;18.90;52.50;;;;;;4999000;28;20037;-76
2022/05/08 09:43:55;;;;;;;;;;;19.00;57.70;;;;;;4993283;28;20026;-76
2022/05/08 09:46:35;;;;;;;3.00;1.30;;;19.60;58.10;;;;;;5000497;28;19925;-76
2022/05/08 09:49:02;;;;;;;4.03;1.33;;;20.40;59.20;;;;;;5032608;28;20045;-76
2022/05/08 09:51:38;;;;;;;4.97;1.52;;;21.20;56.20;;;;;;4992291;28;20503;-76
2022/05/08 09:54:11;;;;;;;3.03;1.20;;;21.50;50.20;;;;;;4997544;28;20045;-76
2022/05/08 09:56:37;;;;;;;3.28;1.00;;;21.50;52.10;;;;;;5005838;28;20052;-75
2022/05/08 09:59:10;;;;;;;3.63;1.30;;;21.60;49.80;;;;;;4996111;28;20124;-76
2022/05/08 10:01:39;;;;;;;;;;;21.60;48.80;;;;;;4990646;28;20086;-76
2022/05/08 10:04:05;;;;;;;4.32;1.20;;;21.80;49.50;;;;;;5006456;28;19936;-75
2022/05/08 10:06:38;;;;;;;4.03;1.38;;;21.70;51.50;;;;;;5026889;28;20414;-76
2022/05/08 10:15:20;;;;;;;4.22;1.48;;;21.60;49.20;;;;;;4950340;28;20153;-75
2022/05/08 10:17:51;;;;;;;2.00;1.20;;;21.60;46.50;;;;;;4937126;28;20039;-76
2022/05/08 10:20:58;;;;;;;3.28;1.15;;;21.50;45.20;;;;;;4976458;28;20041;-76
2022/05/08 10:23:45;;;;;;;4.22;1.52;;;21.10;47.50;;;;;;5015619;28;20048;-77
2022/05/08 10:26:19;;;;;;;3.80;1.33;;;20.90;48.40;;;;;;4993771;28;20118;-75
2022/05/08 10:29:03;;;;;;;5.65;1.38;;;20.90;47.40;;;;;;4992641;28;20045;-76
2022/05/08 10:31:51;;;;;;;3.05;1.42;;;20.70;49.30;;;;;;4999183;28;20042;-75
2022/05/08 10:34:39;;;;;;;4.30;1.40;;;20.60;51.50;;;;;;4983407;28;20488;-76
2022/05/08 10:37:13;;;;;;;5.28;1.35;;;21.20;46.50;;;;;;5005042;28;20148;-76
2022/05/08 10:39:43;;;;;;;5.05;1.40;;;21.30;44.50;;;;;;4997015;28;20080;-76
2022/05/08 10:42:42;;;;;;;5.28;1.23;;;21.00;44.50;;;;;;4993892;28;20033;-76
2022/05/08 10:45:49;;;;;;;5.68;1.60;;;20.80;44.80;;;;;;5029984;28;20045;-76
2022/05/08 10:48:22;;;;;;;2.75;1.10;;;21.00;43.50;;;;;;5013427;28;20049;-76
2022/05/08 10:51:08;;;;;;;3.80;1.48;;;20.30;45.80;;;;;;5013242;28;20410;-76
2022/05/08 10:53:39;;;;;;;3.13;1.25;;;20.10;48.20;;;;;;4997402;28;20131;-76
2022/05/08 10:56:14;;;;;;;3.88;1.10;;;20.40;48.20;;;;;;5015887;28;20038;-76
2022/05/08 10:59:09;;;;;;;3.13;1.10;;;21.00;43.90;;;;;;5009343;28;20126;-76
2022/05/08 11:01:50;;;;;;;4.38;1.23;;;21.00;43.20;;;;;;4980934;28;20050;-76
2022/05/08 11:04:16;;;;;;;4.75;1.20;;;20.70;43.80;;;;;;4996853;28;20133;-76
2022/05/08 11:06:42;;;;;;;3.22;1.20;;;20.20;45.30;;;;;;4996933;28;20116;-76
2022/05/08 11:09:09;;;;;;;3.00;1.05;;;20.30;43.80;;;;;;5006267;28;20044;-77
2022/05/08 11:11:40;;;;;;;5.95;1.50;;;20.40;44.90;;;;;;5009013;28;20049;-77
2022/05/08 11:14:20;;;;;;;3.92;1.13;;;20.60;43.90;;;;;;5000763;28;20053;-77
2022/05/08 11:16:46;;;;;;;4.95;1.65;;;20.50;45.50;;;;;;4999528;28;20046;-77
2022/05/08 11:19:14;;;;;;;3.42;1.30;;;20.10;46.40;;;;;;5016747;28;20099;-77
2022/05/08 11:21:40;;;;;;;4.50;1.30;;;20.00;48.10;;;;;;5014832;28;20034;-76
2022/05/08 11:24:06;;;;;;;4.25;1.35;;;20.40;45.90;;;;;;5032426;28;20400;-76
2022/05/08 11:26:35;;;;;;;3.00;1.10;;;20.60;46.40;;;;;;5002626;28;20041;-76
2022/05/08 11:29:08;;;;;;;3.78;1.30;;;21.10;45.50;;;;;;4996675;28;20077;-76
2022/05/08 11:36:04;;;;;;;2.88;1.00;;;21.30;44.90;;;;;;4985679;28;20036;-76
2022/05/08 11:37:29;;;;;;;3.38;1.35;;;21.90;46.20;;;;;;5016571;28;20041;-76
2022/05/08 11:40:05;;;;;;;2.90;1.30;;;22.40;45.70;;;;;;5018362;28;20045;-76
2022/05/08 11:42:47;;;;;;;3.83;1.10;;;22.90;44.90;;;;;;5016227;28;20095;-76
2022/05/08 11:45:13;;;;;;;3.65;1.13;;;23.10;46.60;;;;;;5015227;28;20045;-76
2022/05/08 11:47:39;;;;;;;2.83;1.15;;;23.80;46.20;;;;;;5020159;28;20116;-75
2022/05/08 11:50:07;;;;;;;4.70;1.45;;;24.00;43.50;;;;;;5012762;28;20041;-75
2022/05/08 11:52:33;;;;;;;4.07;1.40;;;24.00;44.60;;;;;;4995264;28;20107;-76
2022/05/08 11:55:03;;;;;;;2.42;1.05;;;24.30;40.10;;;;;;5009163;28;20373;-76
2022/05/08 11:57:53;;;;;;;3.65;1.30;;;23.90;39.00;;;;;;4994247;28;20412;-76
2022/05/08 12:00:32;;;;;;;3.55;1.20;;;23.20;40.00;;;;;;5009898;28;20072;-77
2022/05/08 12:02:58;;;;;;;4.28;1.15;;;22.60;40.30;;;;;;5014340;28;20376;-76
2022/05/08 12:05:27;;;;;;;3.45;1.30;;;22.40;41.50;;;;;;5000966;28;20068;-76
2022/05/08 12:08:02;;;;;;;3.67;1.45;;;22.40;40.60;;;;;;5017347;28;20071;-76
2022/05/08 12:10:45;;;;;;;2.45;1.20;;;22.20;40.70;;;;;;4999515;28;20518;-76
2022/05/08 12:13:16;;;;;;;3.10;1.20;;;22.40;43.80;;;;;;4997895;28;20135;-77
2022/05/08 12:15:44;;;;;;;3.78;1.20;;;23.00;43.30;;;;;;4996231;28;20484;-75
2022/05/08 12:18:10;;;;;;;3.95;1.33;;;23.70;43.30;;;;;;5030193;28;20033;-74
2022/05/08 12:20:36;;;;;;;2.38;1.00;;;24.20;39.90;;;;;;4997432;28;20554;-75
2022/05/08 12:23:10;;;;;;;5.85;1.67;;;24.10;40.80;;;;;;4999046;28;20076;-76
2022/05/08 12:25:42;;;;;;;2.97;1.30;;;24.20;41.40;;;;;;4999177;28;20037;-75
2022/05/08 12:28:27;;;;;;;4.30;1.20;;;24.40;40.80;;;;;;4999677;28;20041;-75
2022/05/08 12:30:58;;;;;;;3.45;1.27;;;24.60;39.50;;;;;;5004795;28;20045;-76
2022/05/08 12:33:28;;;;;;;5.05;1.40;;;24.10;38.80;;;;;;4996875;28;20496;-75
2022/05/08 12:35:54;;;;;;;3.30;1.17;;;23.60;38.90;;;;;;5008166;28;20033;-75
2022/05/08 12:38:23;;;;;;;4.55;1.45;;;23.30;39.10;;;;;;5010038;28;20053;-75
2022/05/08 12:40:49;;;;;;;2.85;1.30;;;22.90;39.60;;;;;;5006578;28;20442;-76
2022/05/08 12:43:18;;;;;;;1.75;1.05;;;22.80;40.20;;;;;;5011282;28;20095;-75
2022/05/08 12:45:49;;;;;;;4.72;1.25;;;22.90;41.50;;;;;;4999591;28;20487;-77
2022/05/08 12:48:19;;;;;;;6.85;1.45;;;23.30;42.50;;;;;;4998735;28;20495;-76
2022/05/08 12:50:45;;;;;;;4.40;1.40;;;23.70;39.50;;;;;;5006097;28;20044;-75
2022/05/08 12:53:17;;;;;;;4.57;1.60;;;23.90;41.50;;;;;;4997958;28;20044;-77
2022/05/08 12:55:54;;;;;;;4.10;1.08;;;24.30;38.10;;;;;;5000576;28;20033;-76
2022/05/08 13:02:13;;;;;;;5.78;1.33;;;22.90;38.50;;;;;;5008919;28;20041;-78
2022/05/08 13:05:33;;;;;;;4.05;1.27;;;23.10;43.50;;;;;;4959300;28;20446;-77
2022/05/08 13:08:05;;;;;;;3.22;1.15;;;23.90;43.80;;;;;;4925449;28;20051;-76
2022/05/08 13:11:02;;;;;;;1.95;0.98;;;24.70;42.30;;;;;;5003781;28;20045;-78
2022/05/08 13:13:54;;;;;;;2.40;0.93;;;24.70;37.90;;;;;;5027309;28;20514;-77
2022/05/08 13:17:07;;;;;;;4.03;1.27;;;23.90;37.90;;;;;;4979182;28;20689;-76
2022/05/08 13:19:42;;;;;;;4.38;1.55;;;23.20;40.70;;;;;;4980397;28;20427;-76
2022/05/08 13:22:11;;;;;;;4.45;1.40;;;23.40;40.90;;;;;;4995055;28;20046;-76
2022/05/08 13:24:38;;;;;;;4.30;1.30;;;23.50;39.50;;;;;;4992690;28;20417;-75
2022/05/08 13:27:07;;;;;;;3.65;1.60;;;23.30;38.60;;;;;;4999494;28;20042;-76
2022/05/08 13:29:40;;;;;;;6.57;1.50;;;23.10;39.20;;;;;;5014615;28;20045;-76
2022/05/08 13:32:20;;;;;;;4.60;1.55;;;23.00;39.80;;;;;;4998026;28;20506;-75
2022/05/08 13:34:51;;;;;;;3.40;1.25;;;23.10;40.40;;;;;;4994618;28;20046;-77
2022/05/08 13:37:20;;;;;;;3.35;1.23;;;23.40;40.30;;;;;;4964122;28;20133;-76
2022/05/08 13:39:49;;;;;;;5.82;1.40;;;23.50;38.80;;;;;;4985838;28;20041;-76
2022/05/08 13:42:26;;;;;;;4.90;1.60;;;23.10;38.90;;;;;;5011221;28;20045;-77
2022/05/08 13:45:04;;;;;;;4.32;1.77;;;22.90;40.90;;;;;;4998745;28;20394;-76
2022/05/08 13:48:12;;;;;;;3.65;1.30;;;23.30;41.30;;;;;;4993097;28;20091;-78
2022/05/08 13:50:41;;;;;;;6.13;1.33;;;23.60;39.60;;;;;;4966082;28;20046;-76
2022/05/08 13:53:32;;;;;;;4.88;1.60;;;23.30;39.20;;;;;;4975845;28;20125;-77
2022/05/08 13:56:42;;;;;;;5.57;1.52;;;23.00;39.60;;;;;;4989028;28;20377;-77